Terminal Aerodrome Forecast
Issued by NWS

Home | Current Version | Previous Version | Text Only | Print | Product List | Glossary On
Versions: 1 2 3 4 5 6 7 8 9 10 11 12 13 14 15 16 17 18 19 20 21 22 23 24 25 26 27 28 29 30
000
FTAK31 PANC 200526
TAFADU
TAF
PADU 200526Z 2006/2106 06006KT 6SM -SN BKN030
      TEMPO 2006/2010 BKN035
     FM201000 11008KT P6SM -SHSN SCT030 BKN050
     FM201800 12012G20KT P6SM BKN050
     FM202200 12022G32KT 5SM -SN BKN025=

USA.gov is the U.S. government's official web portal to all federal, state and local government web resources and services.